sensor_id;sensor_type;location;lat;lon;timestamp;temperature;humidity
1137;DHT22;557;48.466;7.950;2023-03-03T00:00:10;1.60;14.90
1137;DHT22;557;48.466;7.950;2023-03-03T00:02:59;1.60;26.20
1137;DHT22;557;48.466;7.950;2023-03-03T00:05:52;1.50;29.20
1137;DHT22;557;48.466;7.950;2023-03-03T00:08:39;1.40;31.40
1137;DHT22;557;48.466;7.950;2023-03-03T00:11:27;1.40;42.50
1137;DHT22;557;48.466;7.950;2023-03-03T00:14:20;1.30;47.50
1137;DHT22;557;48.466;7.950;2023-03-03T00:17:16;1.30;45.50
1137;DHT22;557;48.466;7.950;2023-03-03T00:20:33;1.20;51.70
1137;DHT22;557;48.466;7.950;2023-03-03T00:23:29;1.10;56.30
1137;DHT22;557;48.466;7.950;2023-03-03T00:26:20;1.00;70.70
1137;DHT22;557;48.466;7.950;2023-03-03T00:29:33;1.00;88.60
1137;DHT22;557;48.466;7.950;2023-03-03T00:32:23;0.90;92.70
1137;DHT22;557;48.466;7.950;2023-03-03T00:35:22;0.90;94.50
1137;DHT22;557;48.466;7.950;2023-03-03T00:38:13;0.90;97.10
1137;DHT22;557;48.466;7.950;2023-03-03T00:41:09;0.70;96.80
1137;DHT22;557;48.466;7.950;2023-03-03T00:43:57;0.70;99.90
1137;DHT22;557;48.466;7.950;2023-03-03T00:46:45;0.70;99.90
1137;DHT22;557;48.466;7.950;2023-03-03T00:49:33;0.70;99.90
1137;DHT22;557;48.466;7.950;2023-03-03T00:52:20;0.70;99.90
1137;DHT22;557;48.466;7.950;2023-03-03T00:55:10;0.80;99.90
1137;DHT22;557;48.466;7.950;2023-03-03T00:57:59;0.70;99.90
1137;DHT22;557;48.466;7.950;2023-03-03T01:00:47;0.80;99.90
1137;DHT22;557;48.466;7.950;2023-03-03T01:03:35;0.80;99.90
1137;DHT22;557;48.466;7.950;2023-03-03T01:06:22;0.80;99.90
1137;DHT22;557;48.466;7.950;2023-03-03T01:09:10;0.80;99.90
1137;DHT22;557;48.466;7.950;2023-03-03T01:11:57;0.90;99.90
1137;DHT22;557;48.466;7.950;2023-03-03T01:14:46;0.90;99.90
1137;DHT22;557;48.466;7.950;2023-03-03T01:17:35;1.00;99.90
1137;DHT22;557;48.466;7.950;2023-03-03T01:20:23;1.00;99.90
1137;DHT22;557;48.466;7.950;2023-03-03T01:23:12;1.00;99.90
1137;DHT22;557;48.466;7.950;2023-03-03T01:25:59;1.10;99.90
1137;DHT22;557;48.466;7.950;2023-03-03T01:28:46;1.10;99.90
1137;DHT22;557;48.466;7.950;2023-03-03T01:31:35;1.10;99.90
1137;DHT22;557;48.466;7.950;2023-03-03T01:34:23;1.00;99.90
1137;DHT22;557;48.466;7.950;2023-03-03T01:37:11;1.00;99.90
1137;DHT22;557;48.466;7.950;2023-03-03T01:39:58;1.00;99.90
1137;DHT22;557;48.466;7.950;2023-03-03T01:42:46;1.00;99.90
1137;DHT22;557;48.466;7.950;2023-03-03T01:45:44;1.00;99.90
1137;DHT22;557;48.466;7.950;2023-03-03T01:48:55;1.00;99.90
1137;DHT22;557;48.466;7.950;2023-03-03T01:51:50;1.00;99.90
1137;DHT22;557;48.466;7.950;2023-03-03T01:54:41;1.00;99.90
1137;DHT22;557;48.466;7.950;2023-03-03T01:57:37;1.00;99.90
1137;DHT22;557;48.466;7.950;2023-03-03T02:00:26;0.90;99.90
1137;DHT22;557;48.466;7.950;2023-03-03T02:03:15;0.90;99.90
1137;DHT22;557;48.466;7.950;2023-03-03T02:06:07;0.90;99.90
1137;DHT22;557;48.466;7.950;2023-03-03T02:08:59;0.80;99.90
1137;DHT22;557;48.466;7.950;2023-03-03T02:11:50;0.80;99.90
1137;DHT22;557;48.466;7.950;2023-03-03T02:14:38;0.80;99.90
1137;DHT22;557;48.466;7.950;2023-03-03T02:17:25;0.70;99.90
1137;DHT22;557;48.466;7.950;2023-03-03T02:20:19;0.70;99.90
1137;DHT22;557;48.466;7.950;2023-03-03T02:23:18;0.60;99.90
1137;DHT22;557;48.466;7.950;2023-03-03T02:26:11;0.60;99.90
1137;DHT22;557;48.466;7.950;2023-03-03T02:28:59;0.70;99.90
1137;DHT22;557;48.466;7.950;2023-03-03T02:31:46;0.60;99.90
1137;DHT22;557;48.466;7.950;2023-03-03T02:34:46;0.60;99.90
1137;DHT22;557;48.466;7.950;2023-03-03T02:37:34;0.50;99.90
1137;DHT22;557;48.466;7.950;2023-03-03T02:40:25;0.60;99.90
1137;DHT22;557;48.466;7.950;2023-03-03T02:43:17;0.60;99.90
1137;DHT22;557;48.466;7.950;2023-03-03T02:46:07;0.60;99.90
1137;DHT22;557;48.466;7.950;2023-03-03T02:48:55;0.60;99.90
1137;DHT22;557;48.466;7.950;2023-03-03T02:51:43;0.50;99.90
1137;DHT22;557;48.466;7.950;2023-03-03T02:54:31;0.50;99.90
1137;DHT22;557;48.466;7.950;2023-03-03T02:57:18;0.50;99.90
1137;DHT22;557;48.466;7.950;2023-03-03T03:00:08;0.50;99.90
1137;DHT22;557;48.466;7.950;2023-03-03T03:02:56;0.50;99.90
1137;DHT22;557;48.466;7.950;2023-03-03T03:05:44;0.50;99.90
1137;DHT22;557;48.466;7.950;2023-03-03T03:08:31;0.50;99.90
1137;DHT22;557;48.466;7.950;2023-03-03T03:11:18;0.50;99.90
1137;DHT22;557;48.466;7.950;2023-03-03T03:14:07;0.50;99.90
1137;DHT22;557;48.466;7.950;2023-03-03T03:16:56;0.50;99.90
1137;DHT22;557;48.466;7.950;2023-03-03T03:19:43;0.50;99.90
1137;DHT22;557;48.466;7.950;2023-03-03T03:22:31;0.50;99.90
1137;DHT22;557;48.466;7.950;2023-03-03T03:25:18;0.50;99.90
1137;DHT22;557;48.466;7.950;2023-03-03T03:28:05;0.50;99.90
1137;DHT22;557;48.466;7.950;2023-03-03T03:30:53;0.50;99.90
1137;DHT22;557;48.466;7.950;2023-03-03T03:33:41;0.50;99.90
1137;DHT22;557;48.466;7.950;2023-03-03T03:36:29;0.40;99.90
1137;DHT22;557;48.466;7.950;2023-03-03T03:39:16;0.20;99.90
1137;DHT22;557;48.466;7.950;2023-03-03T03:42:04;0.20;99.90
1137;DHT22;557;48.466;7.950;2023-03-03T03:44:51;0.10;99.90
1137;DHT22;557;48.466;7.950;2023-03-03T03:47:38;0.00;99.90
1137;DHT22;557;48.466;7.950;2023-03-03T03:50:27;0.00;99.90
1137;DHT22;557;48.466;7.950;2023-03-03T03:53:15;-0.10;99.90
1137;DHT22;557;48.466;7.950;2023-03-03T03:56:02;-0.20;99.90
1137;DHT22;557;48.466;7.950;2023-03-03T03:58:50;-0.20;99.90
1137;DHT22;557;48.466;7.950;2023-03-03T04:01:37;-0.40;99.90
1137;DHT22;557;48.466;7.950;2023-03-03T04:04:24;-0.40;99.90
1137;DHT22;557;48.466;7.950;2023-03-03T04:07:13;-0.50;99.90
1137;DHT22;557;48.466;7.950;2023-03-03T04:10:01;-0.50;99.90
1137;DHT22;557;48.466;7.950;2023-03-03T04:12:48;-0.40;99.90
1137;DHT22;557;48.466;7.950;2023-03-03T04:15:35;-0.30;99.90
1137;DHT22;557;48.466;7.950;2023-03-03T04:18:22;-0.20;99.90
1137;DHT22;557;48.466;7.950;2023-03-03T04:21:11;-0.10;99.90
1137;DHT22;557;48.466;7.950;2023-03-03T04:24:00;-0.10;99.90
1137;DHT22;557;48.466;7.950;2023-03-03T04:26:47;0.00;99.90
1137;DHT22;557;48.466;7.950;2023-03-03T04:29:37;0.10;99.90
1137;DHT22;557;48.466;7.950;2023-03-03T04:32:25;0.20;99.90
1137;DHT22;557;48.466;7.950;2023-03-03T04:35:12;0.30;99.90
1137;DHT22;557;48.466;7.950;2023-03-03T04:37:59;0.40;99.90
1137;DHT22;557;48.466;7.950;2023-03-03T04:40:48;0.40;99.90
1137;DHT22;557;48.466;7.950;2023-03-03T04:43:36;0.50;99.90
1137;DHT22;557;48.466;7.950;2023-03-03T04:46:23;0.50;99.90
1137;DHT22;557;48.466;7.950;2023-03-03T04:49:10;0.50;99.90
1137;DHT22;557;48.466;7.950;2023-03-03T04:51:58;0.60;99.90
1137;DHT22;557;48.466;7.950;2023-03-03T04:54:45;0.50;99.90
1137;DHT22;557;48.466;7.950;2023-03-03T04:57:34;0.60;99.90
1137;DHT22;557;48.466;7.950;2023-03-03T05:00:21;0.70;99.90
1137;DHT22;557;48.466;7.950;2023-03-03T05:03:11;0.70;99.90
1137;DHT22;557;48.466;7.950;2023-03-03T05:05:59;0.70;99.90
1137;DHT22;557;48.466;7.950;2023-03-03T05:08:46;0.70;99.90
1137;DHT22;557;48.466;7.950;2023-03-03T05:11:33;0.70;99.90
1137;DHT22;557;48.466;7.950;2023-03-03T05:14:22;0.70;99.90
1137;DHT22;557;48.466;7.950;2023-03-03T05:17:11;0.80;99.90
1137;DHT22;557;48.466;7.950;2023-03-03T05:19:59;0.80;99.90
1137;DHT22;557;48.466;7.950;2023-03-03T05:22:46;1.00;99.90
1137;DHT22;557;48.466;7.950;2023-03-03T05:25:34;1.10;99.90
1137;DHT22;557;48.466;7.950;2023-03-03T05:28:21;1.10;99.90
1137;DHT22;557;48.466;7.950;2023-03-03T05:31:10;1.10;99.90
1137;DHT22;557;48.466;7.950;2023-03-03T05:33:57;1.10;99.90
1137;DHT22;557;48.466;7.950;2023-03-03T05:36:45;1.10;99.90
1137;DHT22;557;48.466;7.950;2023-03-03T05:39:32;1.10;99.90
1137;DHT22;557;48.466;7.950;2023-03-03T05:42:20;1.10;99.90
1137;DHT22;557;48.466;7.950;2023-03-03T05:45:08;1.20;99.90
1137;DHT22;557;48.466;7.950;2023-03-03T05:47:57;1.20;99.90
1137;DHT22;557;48.466;7.950;2023-03-03T05:50:44;1.20;99.90
1137;DHT22;557;48.466;7.950;2023-03-03T05:53:31;1.20;99.90
1137;DHT22;557;48.466;7.950;2023-03-03T05:56:19;1.30;99.90
1137;DHT22;557;48.466;7.950;2023-03-03T05:59:06;1.20;99.90
1137;DHT22;557;48.466;7.950;2023-03-03T06:01:53;1.30;99.90
1137;DHT22;557;48.466;7.950;2023-03-03T06:04:42;1.20;99.90
1137;DHT22;557;48.466;7.950;2023-03-03T06:07:30;1.20;99.90
1137;DHT22;557;48.466;7.950;2023-03-03T06:10:17;1.30;99.90
1137;DHT22;557;48.466;7.950;2023-03-03T06:13:05;1.30;99.90
1137;DHT22;557;48.466;7.950;2023-03-03T06:15:52;1.30;99.90
1137;DHT22;557;48.466;7.950;2023-03-03T06:18:39;1.30;99.90
1137;DHT22;557;48.466;7.950;2023-03-03T06:21:28;1.30;99.90
1137;DHT22;557;48.466;7.950;2023-03-03T06:24:15;1.40;99.90
1137;DHT22;557;48.466;7.950;2023-03-03T06:27:02;1.50;99.90
1137;DHT22;557;48.466;7.950;2023-03-03T06:29:50;1.50;99.90
1137;DHT22;557;48.466;7.950;2023-03-03T06:32:37;1.60;94.20
1137;DHT22;557;48.466;7.950;2023-03-03T06:35:24;1.50;91.50
1137;DHT22;557;48.466;7.950;2023-03-03T06:38:13;1.60;93.60
1137;DHT22;557;48.466;7.950;2023-03-03T06:41:00;1.60;75.20
1137;DHT22;557;48.466;7.950;2023-03-03T06:43:52;1.60;59.80
1137;DHT22;557;48.466;7.950;2023-03-03T06:46:39;1.50;63.90
1137;DHT22;557;48.466;7.950;2023-03-03T06:49:27;1.50;88.00
1137;DHT22;557;48.466;7.950;2023-03-03T06:52:18;1.50;71.20
1137;DHT22;557;48.466;7.950;2023-03-03T06:55:21;1.60;81.20
1137;DHT22;557;48.466;7.950;2023-03-03T06:58:12;1.50;90.20
1137;DHT22;557;48.466;7.950;2023-03-03T07:01:00;1.70;82.50
1137;DHT22;557;48.466;7.950;2023-03-03T07:03:47;1.80;51.00
1137;DHT22;557;48.466;7.950;2023-03-03T07:06:35;1.80;54.00
1137;DHT22;557;48.466;7.950;2023-03-03T07:09:25;1.70;72.90
1137;DHT22;557;48.466;7.950;2023-03-03T07:12:15;1.80;88.50
1137;DHT22;557;48.466;7.950;2023-03-03T07:15:13;1.80;33.70
1137;DHT22;557;48.466;7.950;2023-03-03T07:18:01;1.80;56.30
1137;DHT22;557;48.466;7.950;2023-03-03T07:20:50;1.70;50.60
1137;DHT22;557;48.466;7.950;2023-03-03T07:23:38;1.70;92.90
1137;DHT22;557;48.466;7.950;2023-03-03T07:26:29;1.70;99.90
1137;DHT22;557;48.466;7.950;2023-03-03T07:29:22;1.80;99.90
1137;DHT22;557;48.466;7.950;2023-03-03T07:32:24;1.90;97.10
1137;DHT22;557;48.466;7.950;2023-03-03T07:35:28;1.90;69.90
1137;DHT22;557;48.466;7.950;2023-03-03T07:38:23;1.90;54.60
1137;DHT22;557;48.466;7.950;2023-03-03T07:41:16;2.00;60.00
1137;DHT22;557;48.466;7.950;2023-03-03T07:44:11;2.20;30.30
1137;DHT22;557;48.466;7.950;2023-03-03T07:47:17;2.20;13.60
1137;DHT22;557;48.466;7.950;2023-03-03T07:50:13;2.20;16.00
1137;DHT22;557;48.466;7.950;2023-03-03T07:53:02;2.10;11.80
1137;DHT22;557;48.466;7.950;2023-03-03T07:55:51;2.10;26.10
1137;DHT22;557;48.466;7.950;2023-03-03T07:58:39;2.10;24.20
1137;DHT22;557;48.466;7.950;2023-03-03T08:01:40;2.20;47.20
1137;DHT22;557;48.466;7.950;2023-03-03T08:04:37;2.30;7.60
1137;DHT22;557;48.466;7.950;2023-03-03T08:07:25;2.30;2.40
1137;DHT22;557;48.466;7.950;2023-03-03T08:10:33;2.30;19.90
1137;DHT22;557;48.466;7.950;2023-03-03T08:13:23;2.60;1.00
1137;DHT22;557;48.466;7.950;2023-03-03T08:16:29;2.70;1.00
1137;DHT22;557;48.466;7.950;2023-03-03T08:19:22;2.80;1.00
1137;DHT22;557;48.466;7.950;2023-03-03T08:22:13;2.80;1.00
1137;DHT22;557;48.466;7.950;2023-03-03T08:25:01;2.80;1.00
1137;DHT22;557;48.466;7.950;2023-03-03T08:27:49;2.80;1.00
1137;DHT22;557;48.466;7.950;2023-03-03T08:30:36;3.00;1.00
1137;DHT22;557;48.466;7.950;2023-03-03T08:33:23;2.90;1.00
1137;DHT22;557;48.466;7.950;2023-03-03T08:36:11;2.90;1.00
1137;DHT22;557;48.466;7.950;2023-03-03T08:39:00;3.00;1.00
1137;DHT22;557;48.466;7.950;2023-03-03T08:41:48;3.20;1.00
1137;DHT22;557;48.466;7.950;2023-03-03T08:44:35;3.30;1.00
1137;DHT22;557;48.466;7.950;2023-03-03T08:47:22;3.40;1.00
1137;DHT22;557;48.466;7.950;2023-03-03T08:50:10;3.30;1.00
1137;DHT22;557;48.466;7.950;2023-03-03T08:52:59;3.30;1.00
1137;DHT22;557;48.466;7.950;2023-03-03T08:55:48;3.50;1.00
1137;DHT22;557;48.466;7.950;2023-03-03T08:58:35;3.80;1.00
1137;DHT22;557;48.466;7.950;2023-03-03T09:01:24;3.80;99.90
1137;DHT22;557;48.466;7.950;2023-03-03T09:04:12;3.90;1.00
1137;DHT22;557;48.466;7.950;2023-03-03T09:06:59;3.90;1.00
1137;DHT22;557;48.466;7.950;2023-03-03T09:09:48;4.10;1.00
1137;DHT22;557;48.466;7.950;2023-03-03T09:12:40;4.20;99.90
1137;DHT22;557;48.466;7.950;2023-03-03T09:15:29;4.30;1.00
1137;DHT22;557;48.466;7.950;2023-03-03T09:18:19;4.40;99.90
1137;DHT22;557;48.466;7.950;2023-03-03T09:21:20;4.60;1.00
1137;DHT22;557;48.466;7.950;2023-03-03T09:24:15;4.80;99.90
1137;DHT22;557;48.466;7.950;2023-03-03T09:27:14;5.00;99.90
1137;DHT22;557;48.466;7.950;2023-03-03T09:30:14;5.20;1.00
1137;DHT22;557;48.466;7.950;2023-03-03T09:33:23;5.30;1.00
1137;DHT22;557;48.466;7.950;2023-03-03T09:36:24;5.40;1.00
1137;DHT22;557;48.466;7.950;2023-03-03T09:39:16;5.60;99.90
1137;DHT22;557;48.466;7.950;2023-03-03T09:45:53;5.50;1.00
1137;DHT22;557;48.466;7.950;2023-03-03T09:48:51;5.80;99.90
1137;DHT22;557;48.466;7.950;2023-03-03T09:52:02;6.00;99.90
1137;DHT22;557;48.466;7.950;2023-03-03T09:55:02;6.20;1.00
1137;DHT22;557;48.466;7.950;2023-03-03T09:58:03;6.30;99.90
1137;DHT22;557;48.466;7.950;2023-03-03T10:01:01;6.50;1.00
1137;DHT22;557;48.466;7.950;2023-03-03T10:04:10;6.80;99.90
1137;DHT22;557;48.466;7.950;2023-03-03T10:10:21;6.40;99.90
1137;DHT22;557;48.466;7.950;2023-03-03T10:13:23;6.50;1.00
1137;DHT22;557;48.466;7.950;2023-03-03T10:16:23;6.50;1.00
1137;DHT22;557;48.466;7.950;2023-03-03T10:19:29;6.50;1.00
1137;DHT22;557;48.466;7.950;2023-03-03T10:22:22;6.70;99.90
1137;DHT22;557;48.466;7.950;2023-03-03T10:25:20;7.00;99.90
1137;DHT22;557;48.466;7.950;2023-03-03T10:32:07;7.30;99.90
1137;DHT22;557;48.466;7.950;2023-03-03T10:35:11;7.40;20.90
1137;DHT22;557;48.466;7.950;2023-03-03T10:38:14;7.50;90.90
1137;DHT22;557;48.466;7.950;2023-03-03T10:41:17;7.60;1.00
1137;DHT22;557;48.466;7.950;2023-03-03T10:44:17;7.70;1.00
1137;DHT22;557;48.466;7.950;2023-03-03T10:47:33;7.90;1.00
1137;DHT22;557;48.466;7.950;2023-03-03T10:50:30;7.90;1.00
1137;DHT22;557;48.466;7.950;2023-03-03T10:53:22;7.90;1.00
1137;DHT22;557;48.466;7.950;2023-03-03T10:56:24;8.10;1.00
1137;DHT22;557;48.466;7.950;2023-03-03T10:59:28;8.20;1.00
1137;DHT22;557;48.466;7.950;2023-03-03T11:02:28;8.40;1.00
1137;DHT22;557;48.466;7.950;2023-03-03T11:05:28;8.50;1.00
1137;DHT22;557;48.466;7.950;2023-03-03T11:08:21;8.60;99.90
1137;DHT22;557;48.466;7.950;2023-03-03T11:11:19;8.70;99.90
1137;DHT22;557;48.466;7.950;2023-03-03T11:14:12;8.90;99.90
1137;DHT22;557;48.466;7.950;2023-03-03T11:17:10;9.10;99.90
1137;DHT22;557;48.466;7.950;2023-03-03T11:20:06;9.40;99.90
1137;DHT22;557;48.466;7.950;2023-03-03T11:22:57;9.10;99.90
1137;DHT22;557;48.466;7.950;2023-03-03T11:26:05;9.20;99.90
1137;DHT22;557;48.466;7.950;2023-03-03T11:29:04;9.20;99.90
1137;DHT22;557;48.466;7.950;2023-03-03T11:31:56;9.20;99.90
1137;DHT22;557;48.466;7.950;2023-03-03T11:34:52;9.50;99.90
1137;DHT22;557;48.466;7.950;2023-03-03T11:37:49;10.40;99.90
1137;DHT22;557;48.466;7.950;2023-03-03T11:40:47;10.60;99.90
1137;DHT22;557;48.466;7.950;2023-03-03T11:43:38;10.20;99.90
1137;DHT22;557;48.466;7.950;2023-03-03T11:46:33;10.70;99.90
1137;DHT22;557;48.466;7.950;2023-03-03T11:49:27;11.20;99.90
1137;DHT22;557;48.466;7.950;2023-03-03T11:52:27;11.40;99.90
1137;DHT22;557;48.466;7.950;2023-03-03T11:55:25;11.70;99.90
1137;DHT22;557;48.466;7.950;2023-03-03T11:58:18;11.80;99.90
1137;DHT22;557;48.466;7.950;2023-03-03T12:01:15;12.10;99.90
1137;DHT22;557;48.466;7.950;2023-03-03T12:04:06;11.90;99.90
1137;DHT22;557;48.466;7.950;2023-03-03T12:07:08;12.30;99.90
1137;DHT22;557;48.466;7.950;2023-03-03T12:10:05;12.30;99.90
1137;DHT22;557;48.466;7.950;2023-03-03T12:13:03;12.30;99.90
1137;DHT22;557;48.466;7.950;2023-03-03T12:15:56;12.50;99.90
1137;DHT22;557;48.466;7.950;2023-03-03T12:19:19;12.30;99.90
1137;DHT22;557;48.466;7.950;2023-03-03T12:22:29;11.80;99.90
1137;DHT22;557;48.466;7.950;2023-03-03T12:25:24;11.50;99.90
1137;DHT22;557;48.466;7.950;2023-03-03T12:28:17;11.30;99.90
1137;DHT22;557;48.466;7.950;2023-03-03T12:31:17;11.30;99.90
1137;DHT22;557;48.466;7.950;2023-03-03T12:34:12;11.20;99.90
1137;DHT22;557;48.466;7.950;2023-03-03T12:37:22;11.30;99.90
1137;DHT22;557;48.466;7.950;2023-03-03T12:40:16;11.20;99.90
1137;DHT22;557;48.466;7.950;2023-03-03T12:43:29;11.30;99.90
1137;DHT22;557;48.466;7.950;2023-03-03T12:46:23;11.30;99.90
1137;DHT22;557;48.466;7.950;2023-03-03T12:49:12;11.50;99.90
1137;DHT22;557;48.466;7.950;2023-03-03T12:52:09;11.80;99.90
1137;DHT22;557;48.466;7.950;2023-03-03T12:55:16;12.00;99.90
1137;DHT22;557;48.466;7.950;2023-03-03T12:58:13;12.10;99.90
1137;DHT22;557;48.466;7.950;2023-03-03T13:01:19;12.50;99.90
1137;DHT22;557;48.466;7.950;2023-03-03T13:04:12;13.10;99.90
1137;DHT22;557;48.466;7.950;2023-03-03T13:07:07;13.70;99.90
1137;DHT22;557;48.466;7.950;2023-03-03T13:10:07;13.50;99.90
1137;DHT22;557;48.466;7.950;2023-03-03T13:13:05;13.30;99.90
1137;DHT22;557;48.466;7.950;2023-03-03T13:16:00;13.60;99.90
1137;DHT22;557;48.466;7.950;2023-03-03T13:18:54;13.80;99.90
1137;DHT22;557;48.466;7.950;2023-03-03T13:21:47;13.80;99.90
1137;DHT22;557;48.466;7.950;2023-03-03T13:24:42;13.90;99.90
1137;DHT22;557;48.466;7.950;2023-03-03T13:27:36;13.50;99.90
1137;DHT22;557;48.466;7.950;2023-03-03T13:30:27;13.00;99.90
1137;DHT22;557;48.466;7.950;2023-03-03T13:33:22;12.60;99.90
1137;DHT22;557;48.466;7.950;2023-03-03T13:36:13;12.60;99.90
1137;DHT22;557;48.466;7.950;2023-03-03T13:39:09;12.90;99.90
1137;DHT22;557;48.466;7.950;2023-03-03T13:42:01;13.20;99.90
1137;DHT22;557;48.466;7.950;2023-03-03T13:44:50;12.90;99.90
1137;DHT22;557;48.466;7.950;2023-03-03T13:47:44;12.80;99.90
1137;DHT22;557;48.466;7.950;2023-03-03T13:50:37;12.60;99.90
1137;DHT22;557;48.466;7.950;2023-03-03T13:53:40;12.80;99.90
1137;DHT22;557;48.466;7.950;2023-03-03T13:59:44;12.90;99.90
1137;DHT22;557;48.466;7.950;2023-03-03T14:02:52;13.10;99.90
1137;DHT22;557;48.466;7.950;2023-03-03T14:05:44;14.20;99.90
1137;DHT22;557;48.466;7.950;2023-03-03T14:08:46;15.10;99.90
1137;DHT22;557;48.466;7.950;2023-03-03T14:11:42;16.00;99.30
1137;DHT22;557;48.466;7.950;2023-03-03T14:14:42;16.70;96.90
1137;DHT22;557;48.466;7.950;2023-03-03T14:17:37;16.90;92.80
1137;DHT22;557;48.466;7.950;2023-03-03T14:20:29;16.80;86.70
1137;DHT22;557;48.466;7.950;2023-03-03T14:23:22;16.50;75.80
1137;DHT22;557;48.466;7.950;2023-03-03T14:26:12;15.90;70.60
1137;DHT22;557;48.466;7.950;2023-03-03T14:29:22;16.00;65.90
1137;DHT22;557;48.466;7.950;2023-03-03T14:32:21;16.20;63.20
1137;DHT22;557;48.466;7.950;2023-03-03T14:35:16;16.20;60.20
1137;DHT22;557;48.466;7.950;2023-03-03T14:38:11;16.30;59.90
1137;DHT22;557;48.466;7.950;2023-03-03T14:41:07;16.30;56.00
1137;DHT22;557;48.466;7.950;2023-03-03T14:44:01;16.10;53.20
1137;DHT22;557;48.466;7.950;2023-03-03T14:47:20;15.90;51.90
1137;DHT22;557;48.466;7.950;2023-03-03T14:50:29;16.00;50.80
1137;DHT22;557;48.466;7.950;2023-03-03T14:53:22;16.30;51.80
1137;DHT22;557;48.466;7.950;2023-03-03T14:56:21;16.50;48.70
1137;DHT22;557;48.466;7.950;2023-03-03T14:59:16;16.10;43.60
1137;DHT22;557;48.466;7.950;2023-03-03T15:02:29;15.90;40.90
1137;DHT22;557;48.466;7.950;2023-03-03T15:05:21;16.00;39.80
1137;DHT22;557;48.466;7.950;2023-03-03T15:08:13;16.30;48.80
1137;DHT22;557;48.466;7.950;2023-03-03T15:11:13;16.30;48.90
1137;DHT22;557;48.466;7.950;2023-03-03T15:14:14;15.30;27.80
1137;DHT22;557;48.466;7.950;2023-03-03T15:17:24;14.10;22.10
1137;DHT22;557;48.466;7.950;2023-03-03T15:20:28;13.40;19.80
1137;DHT22;557;48.466;7.950;2023-03-03T15:23:37;12.90;17.30
1137;DHT22;557;48.466;7.950;2023-03-03T15:26:32;12.30;15.30
1137;DHT22;557;48.466;7.950;2023-03-03T15:29:30;11.90;13.90
1137;DHT22;557;48.466;7.950;2023-03-03T15:32:24;11.50;13.70
1137;DHT22;557;48.466;7.950;2023-03-03T15:35:25;11.20;13.80
1137;DHT22;557;48.466;7.950;2023-03-03T15:38:23;11.00;14.20
1137;DHT22;557;48.466;7.950;2023-03-03T15:41:22;10.80;15.10
1137;DHT22;557;48.466;7.950;2023-03-03T15:44:20;10.70;15.40
1137;DHT22;557;48.466;7.950;2023-03-03T15:47:23;10.50;16.90
1137;DHT22;557;48.466;7.950;2023-03-03T15:50:34;10.40;19.30
1137;DHT22;557;48.466;7.950;2023-03-03T15:53:37;10.30;19.10
1137;DHT22;557;48.466;7.950;2023-03-03T15:56:34;10.40;21.30
1137;DHT22;557;48.466;7.950;2023-03-03T15:59:45;10.70;22.30
1137;DHT22;557;48.466;7.950;2023-03-03T16:02:46;10.80;22.80
1137;DHT22;557;48.466;7.950;2023-03-03T16:05:40;10.80;20.90
1137;DHT22;557;48.466;7.950;2023-03-03T16:08:41;10.80;22.70
1137;DHT22;557;48.466;7.950;2023-03-03T16:11:35;10.90;23.80
1137;DHT22;557;48.466;7.950;2023-03-03T16:14:39;10.90;23.50
1137;DHT22;557;48.466;7.950;2023-03-03T16:17:33;10.70;23.30
1137;DHT22;557;48.466;7.950;2023-03-03T16:20:29;10.60;29.60
1137;DHT22;557;48.466;7.950;2023-03-03T16:23:30;10.30;25.00
1137;DHT22;557;48.466;7.950;2023-03-03T16:26:34;10.20;26.60
1137;DHT22;557;48.466;7.950;2023-03-03T16:29:34;10.00;26.80
1137;DHT22;557;48.466;7.950;2023-03-03T16:32:28;9.80;28.90
1137;DHT22;557;48.466;7.950;2023-03-03T16:35:22;9.60;32.00
1137;DHT22;557;48.466;7.950;2023-03-03T16:38:16;9.50;37.20
1137;DHT22;557;48.466;7.950;2023-03-03T16:41:10;9.40;43.60
1137;DHT22;557;48.466;7.950;2023-03-03T16:44:07;9.30;46.60
1137;DHT22;557;48.466;7.950;2023-03-03T16:47:11;9.20;55.00
1137;DHT22;557;48.466;7.950;2023-03-03T16:50:09;9.10;58.50
1137;DHT22;557;48.466;7.950;2023-03-03T16:53:12;9.00;71.70
1137;DHT22;557;48.466;7.950;2023-03-03T16:56:05;8.90;90.40
1137;DHT22;557;48.466;7.950;2023-03-03T17:05:52;8.50;99.90
1137;DHT22;557;48.466;7.950;2023-03-03T17:09:01;8.40;99.90
1137;DHT22;557;48.466;7.950;2023-03-03T17:12:00;8.20;99.90
1137;DHT22;557;48.466;7.950;2023-03-03T17:15:06;8.10;99.90
1137;DHT22;557;48.466;7.950;2023-03-03T17:18:07;8.00;99.90
1137;DHT22;557;48.466;7.950;2023-03-03T17:20:59;7.90;99.90
1137;DHT22;557;48.466;7.950;2023-03-03T17:23:58;7.90;99.90
1137;DHT22;557;48.466;7.950;2023-03-03T17:26:55;7.70;99.90
1137;DHT22;557;48.466;7.950;2023-03-03T17:30:01;7.50;99.90
1137;DHT22;557;48.466;7.950;2023-03-03T17:33:05;7.40;99.90
1137;DHT22;557;48.466;7.950;2023-03-03T17:36:14;7.30;99.90
1137;DHT22;557;48.466;7.950;2023-03-03T17:39:16;7.20;99.90
1137;DHT22;557;48.466;7.950;2023-03-03T17:42:11;7.00;99.90
1137;DHT22;557;48.466;7.950;2023-03-03T17:45:06;6.90;99.90
1137;DHT22;557;48.466;7.950;2023-03-03T17:48:08;6.80;99.90
1137;DHT22;557;48.466;7.950;2023-03-03T17:51:23;6.70;99.90
1137;DHT22;557;48.466;7.950;2023-03-03T17:54:34;6.50;99.90
1137;DHT22;557;48.466;7.950;2023-03-03T17:57:37;6.40;1.00
1137;DHT22;557;48.466;7.950;2023-03-03T18:00:32;6.30;1.00
1137;DHT22;557;48.466;7.950;2023-03-03T18:03:32;6.10;1.00
1137;DHT22;557;48.466;7.950;2023-03-03T18:06:56;6.00;1.00
1137;DHT22;557;48.466;7.950;2023-03-03T18:10:12;5.90;1.00
1137;DHT22;557;48.466;7.950;2023-03-03T18:13:12;5.90;54.20
1137;DHT22;557;48.466;7.950;2023-03-03T18:16:17;5.90;99.90
1137;DHT22;557;48.466;7.950;2023-03-03T18:19:16;5.80;88.60
1137;DHT22;557;48.466;7.950;2023-03-03T18:22:11;5.70;99.90
1137;DHT22;557;48.466;7.950;2023-03-03T18:25:01;5.60;99.90
1137;DHT22;557;48.466;7.950;2023-03-03T18:28:15;5.50;1.00
1137;DHT22;557;48.466;7.950;2023-03-03T18:31:18;5.50;1.00
1137;DHT22;557;48.466;7.950;2023-03-03T18:34:08;5.50;1.00
1137;DHT22;557;48.466;7.950;2023-03-03T18:36:57;5.60;1.00
1137;DHT22;557;48.466;7.950;2023-03-03T18:39:46;5.60;1.00
1137;DHT22;557;48.466;7.950;2023-03-03T18:42:36;5.50;1.00
1137;DHT22;557;48.466;7.950;2023-03-03T18:45:49;5.30;1.00
1137;DHT22;557;48.466;7.950;2023-03-03T18:48:47;5.10;99.90
1137;DHT22;557;48.466;7.950;2023-03-03T18:58:35;4.80;1.00
1137;DHT22;557;48.466;7.950;2023-03-03T19:01:43;4.70;1.00
1137;DHT22;557;48.466;7.950;2023-03-03T19:04:34;4.50;1.00
1137;DHT22;557;48.466;7.950;2023-03-03T19:07:24;4.30;99.90
1137;DHT22;557;48.466;7.950;2023-03-03T19:10:44;4.20;32.00
1137;DHT22;557;48.466;7.950;2023-03-03T19:13:45;4.10;1.00
1137;DHT22;557;48.466;7.950;2023-03-03T19:16:34;4.10;1.00
1137;DHT22;557;48.466;7.950;2023-03-03T19:19:29;4.00;99.90
1137;DHT22;557;48.466;7.950;2023-03-03T19:22:22;3.80;99.90
1137;DHT22;557;48.466;7.950;2023-03-03T19:25:20;3.90;99.90
1137;DHT22;557;48.466;7.950;2023-03-03T19:28:24;3.70;99.90
1137;DHT22;557;48.466;7.950;2023-03-03T19:31:20;3.60;99.90
1137;DHT22;557;48.466;7.950;2023-03-03T19:34:15;3.50;99.90
1137;DHT22;557;48.466;7.950;2023-03-03T19:37:19;3.50;1.00
1137;DHT22;557;48.466;7.950;2023-03-03T19:40:16;3.40;99.90
1137;DHT22;557;48.466;7.950;2023-03-03T19:43:12;3.30;1.00
1137;DHT22;557;48.466;7.950;2023-03-03T19:46:23;3.20;1.00
1137;DHT22;557;48.466;7.950;2023-03-03T19:49:20;3.20;1.00
1137;DHT22;557;48.466;7.950;2023-03-03T19:52:17;3.20;1.00
1137;DHT22;557;48.466;7.950;2023-03-03T19:55:21;3.10;1.00
1137;DHT22;557;48.466;7.950;2023-03-03T19:58:20;3.10;1.00
1137;DHT22;557;48.466;7.950;2023-03-03T20:01:16;3.00;1.00